sensor_id;sensor_type;location;lat;lon;timestamp;temperature;humidity
31231;DHT22;17852;51.170;6.830;2024-01-30T00:00:22;9.20;99.90
31231;DHT22;17852;51.170;6.830;2024-01-30T00:02:47;9.20;99.90
31231;DHT22;17852;51.170;6.830;2024-01-30T00:05:13;9.20;99.90
31231;DHT22;17852;51.170;6.830;2024-01-30T00:07:39;9.20;99.90
31231;DHT22;17852;51.170;6.830;2024-01-30T00:10:05;9.20;99.90
31231;DHT22;17852;51.170;6.830;2024-01-30T00:12:31;9.10;99.90
31231;DHT22;17852;51.170;6.830;2024-01-30T00:14:57;9.00;99.90
31231;DHT22;17852;51.170;6.830;2024-01-30T00:17:23;9.00;99.90
31231;DHT22;17852;51.170;6.830;2024-01-30T00:19:50;9.00;99.90
31231;DHT22;17852;51.170;6.830;2024-01-30T00:22:16;8.90;99.90
31231;DHT22;17852;51.170;6.830;2024-01-30T00:24:41;9.00;99.90
31231;DHT22;17852;51.170;6.830;2024-01-30T00:27:08;8.90;99.90
31231;DHT22;17852;51.170;6.830;2024-01-30T00:29:34;8.90;99.90
31231;DHT22;17852;51.170;6.830;2024-01-30T00:31:59;8.90;99.90
31231;DHT22;17852;51.170;6.830;2024-01-30T00:34:25;8.90;99.90
31231;DHT22;17852;51.170;6.830;2024-01-30T00:36:51;8.80;99.90
31231;DHT22;17852;51.170;6.830;2024-01-30T00:39:17;8.80;99.90
31231;DHT22;17852;51.170;6.830;2024-01-30T00:41:45;8.70;99.90
31231;DHT22;17852;51.170;6.830;2024-01-30T00:44:11;8.70;99.90
31231;DHT22;17852;51.170;6.830;2024-01-30T00:46:36;8.70;99.90
31231;DHT22;17852;51.170;6.830;2024-01-30T00:49:02;8.70;99.90
31231;DHT22;17852;51.170;6.830;2024-01-30T00:51:28;8.60;99.90
31231;DHT22;17852;51.170;6.830;2024-01-30T00:53:55;8.60;99.90
31231;DHT22;17852;51.170;6.830;2024-01-30T00:56:21;8.70;99.90
31231;DHT22;17852;51.170;6.830;2024-01-30T00:58:46;8.60;99.90
31231;DHT22;17852;51.170;6.830;2024-01-30T01:01:12;8.60;99.90
31231;DHT22;17852;51.170;6.830;2024-01-30T01:03:38;8.60;99.90
31231;DHT22;17852;51.170;6.830;2024-01-30T01:06:06;8.60;99.90
31231;DHT22;17852;51.170;6.830;2024-01-30T01:08:32;8.60;99.90
31231;DHT22;17852;51.170;6.830;2024-01-30T01:10:57;8.50;99.90
31231;DHT22;17852;51.170;6.830;2024-01-30T01:13:23;8.50;99.90
31231;DHT22;17852;51.170;6.830;2024-01-30T01:15:49;8.50;99.90
31231;DHT22;17852;51.170;6.830;2024-01-30T01:18:15;8.50;99.90
31231;DHT22;17852;51.170;6.830;2024-01-30T01:20:41;8.50;99.90
31231;DHT22;17852;51.170;6.830;2024-01-30T01:23:07;8.50;99.90
31231;DHT22;17852;51.170;6.830;2024-01-30T01:25:32;8.50;99.90
31231;DHT22;17852;51.170;6.830;2024-01-30T01:27:58;8.50;99.90
31231;DHT22;17852;51.170;6.830;2024-01-30T01:30:26;8.50;99.90
31231;DHT22;17852;51.170;6.830;2024-01-30T01:32:53;8.40;99.90
31231;DHT22;17852;51.170;6.830;2024-01-30T01:35:23;8.40;99.90
31231;DHT22;17852;51.170;6.830;2024-01-30T01:37:56;8.40;99.90
31231;DHT22;17852;51.170;6.830;2024-01-30T01:40:26;8.40;99.90
31231;DHT22;17852;51.170;6.830;2024-01-30T01:42:53;8.40;99.90
31231;DHT22;17852;51.170;6.830;2024-01-30T01:45:20;8.40;99.90
31231;DHT22;17852;51.170;6.830;2024-01-30T01:47:48;8.40;99.90
31231;DHT22;17852;51.170;6.830;2024-01-30T01:50:16;8.40;99.90
31231;DHT22;17852;51.170;6.830;2024-01-30T01:52:47;8.40;99.90
31231;DHT22;17852;51.170;6.830;2024-01-30T01:55:15;8.40;99.90
31231;DHT22;17852;51.170;6.830;2024-01-30T01:57:41;8.40;99.90
31231;DHT22;17852;51.170;6.830;2024-01-30T02:00:08;8.40;99.90
31231;DHT22;17852;51.170;6.830;2024-01-30T02:02:36;8.40;99.90
31231;DHT22;17852;51.170;6.830;2024-01-30T02:05:02;8.40;99.90
31231;DHT22;17852;51.170;6.830;2024-01-30T02:07:28;8.40;99.90
31231;DHT22;17852;51.170;6.830;2024-01-30T02:09:55;8.40;99.90
31231;DHT22;17852;51.170;6.830;2024-01-30T02:12:21;8.50;99.90
31231;DHT22;17852;51.170;6.830;2024-01-30T02:14:47;8.40;99.90
31231;DHT22;17852;51.170;6.830;2024-01-30T02:17:15;8.40;99.90
31231;DHT22;17852;51.170;6.830;2024-01-30T02:19:41;8.40;99.90
31231;DHT22;17852;51.170;6.830;2024-01-30T02:22:07;8.50;99.90
31231;DHT22;17852;51.170;6.830;2024-01-30T02:24:33;8.40;99.90
31231;DHT22;17852;51.170;6.830;2024-01-30T02:26:59;8.50;99.90
31231;DHT22;17852;51.170;6.830;2024-01-30T02:29:24;8.50;99.90
31231;DHT22;17852;51.170;6.830;2024-01-30T02:31:50;8.40;99.90
31231;DHT22;17852;51.170;6.830;2024-01-30T02:34:16;8.50;99.90
31231;DHT22;17852;51.170;6.830;2024-01-30T02:36:45;8.50;99.90
31231;DHT22;17852;51.170;6.830;2024-01-30T02:39:11;8.50;99.90
31231;DHT22;17852;51.170;6.830;2024-01-30T02:41:37;8.40;99.90
31231;DHT22;17852;51.170;6.830;2024-01-30T02:44:03;8.40;99.90
31231;DHT22;17852;51.170;6.830;2024-01-30T02:46:29;8.50;99.90
31231;DHT22;17852;51.170;6.830;2024-01-30T02:48:55;8.50;99.90
31231;DHT22;17852;51.170;6.830;2024-01-30T02:51:21;8.50;99.90
31231;DHT22;17852;51.170;6.830;2024-01-30T02:53:47;8.50;99.90
31231;DHT22;17852;51.170;6.830;2024-01-30T02:56:13;8.60;99.90
31231;DHT22;17852;51.170;6.830;2024-01-30T02:58:42;8.60;99.90
31231;DHT22;17852;51.170;6.830;2024-01-30T03:01:07;8.60;99.90
31231;DHT22;17852;51.170;6.830;2024-01-30T03:03:33;8.50;99.90
31231;DHT22;17852;51.170;6.830;2024-01-30T03:06:02;8.50;99.90
31231;DHT22;17852;51.170;6.830;2024-01-30T03:08:28;8.60;99.90
31231;DHT22;17852;51.170;6.830;2024-01-30T03:10:54;8.60;99.90
31231;DHT22;17852;51.170;6.830;2024-01-30T03:13:19;8.60;99.90
31231;DHT22;17852;51.170;6.830;2024-01-30T03:15:45;8.60;99.90
31231;DHT22;17852;51.170;6.830;2024-01-30T03:18:11;8.60;99.90
31231;DHT22;17852;51.170;6.830;2024-01-30T03:20:37;8.60;99.90
31231;DHT22;17852;51.170;6.830;2024-01-30T03:23:02;8.60;99.90
31231;DHT22;17852;51.170;6.830;2024-01-30T03:25:28;8.60;99.90
31231;DHT22;17852;51.170;6.830;2024-01-30T03:27:54;8.60;99.90
31231;DHT22;17852;51.170;6.830;2024-01-30T03:30:19;8.60;99.90
31231;DHT22;17852;51.170;6.830;2024-01-30T03:32:45;8.60;99.90
31231;DHT22;17852;51.170;6.830;2024-01-30T03:35:11;8.60;99.90
31231;DHT22;17852;51.170;6.830;2024-01-30T03:37:36;8.60;99.90
31231;DHT22;17852;51.170;6.830;2024-01-30T03:40:03;8.60;99.90
31231;DHT22;17852;51.170;6.830;2024-01-30T03:42:29;8.60;99.90
31231;DHT22;17852;51.170;6.830;2024-01-30T03:44:55;8.60;99.90
31231;DHT22;17852;51.170;6.830;2024-01-30T03:47:21;8.60;99.90
31231;DHT22;17852;51.170;6.830;2024-01-30T03:49:47;8.50;99.90
31231;DHT22;17852;51.170;6.830;2024-01-30T03:52:13;8.60;99.90
31231;DHT22;17852;51.170;6.830;2024-01-30T03:54:39;8.50;99.90
31231;DHT22;17852;51.170;6.830;2024-01-30T03:57:05;8.50;99.90
31231;DHT22;17852;51.170;6.830;2024-01-30T03:59:31;8.50;99.90
31231;DHT22;17852;51.170;6.830;2024-01-30T04:01:56;8.50;99.90
31231;DHT22;17852;51.170;6.830;2024-01-30T04:04:22;8.50;99.90
31231;DHT22;17852;51.170;6.830;2024-01-30T04:06:48;8.50;99.90
31231;DHT22;17852;51.170;6.830;2024-01-30T04:09:14;8.40;99.90
31231;DHT22;17852;51.170;6.830;2024-01-30T04:11:40;8.40;99.90
31231;DHT22;17852;51.170;6.830;2024-01-30T04:14:10;8.40;99.90
31231;DHT22;17852;51.170;6.830;2024-01-30T04:16:36;8.40;99.90
31231;DHT22;17852;51.170;6.830;2024-01-30T04:19:02;8.40;99.90
31231;DHT22;17852;51.170;6.830;2024-01-30T04:21:27;8.40;99.90
31231;DHT22;17852;51.170;6.830;2024-01-30T04:23:53;8.30;99.90
31231;DHT22;17852;51.170;6.830;2024-01-30T04:26:19;8.30;99.90
31231;DHT22;17852;51.170;6.830;2024-01-30T04:28:45;8.40;99.90
31231;DHT22;17852;51.170;6.830;2024-01-30T04:31:11;8.40;99.90
31231;DHT22;17852;51.170;6.830;2024-01-30T04:33:37;8.40;99.90
31231;DHT22;17852;51.170;6.830;2024-01-30T04:36:03;8.40;99.90
31231;DHT22;17852;51.170;6.830;2024-01-30T04:38:29;8.40;99.90
31231;DHT22;17852;51.170;6.830;2024-01-30T04:40:55;8.30;99.90
31231;DHT22;17852;51.170;6.830;2024-01-30T04:43:24;8.30;99.90
31231;DHT22;17852;51.170;6.830;2024-01-30T04:45:51;8.40;99.90
31231;DHT22;17852;51.170;6.830;2024-01-30T04:48:17;8.30;99.90
31231;DHT22;17852;51.170;6.830;2024-01-30T04:50:43;8.40;99.90
31231;DHT22;17852;51.170;6.830;2024-01-30T04:53:08;8.40;99.90
31231;DHT22;17852;51.170;6.830;2024-01-30T04:55:35;8.50;99.90
31231;DHT22;17852;51.170;6.830;2024-01-30T04:58:01;8.50;99.90
31231;DHT22;17852;51.170;6.830;2024-01-30T05:00:27;8.60;99.90
31231;DHT22;17852;51.170;6.830;2024-01-30T05:02:54;8.60;99.90
31231;DHT22;17852;51.170;6.830;2024-01-30T05:05:20;8.50;99.90
31231;DHT22;17852;51.170;6.830;2024-01-30T05:07:47;8.50;99.90
31231;DHT22;17852;51.170;6.830;2024-01-30T05:10:13;8.50;99.90
31231;DHT22;17852;51.170;6.830;2024-01-30T05:12:39;8.50;99.90
31231;DHT22;17852;51.170;6.830;2024-01-30T05:15:05;8.50;99.90
31231;DHT22;17852;51.170;6.830;2024-01-30T05:17:31;8.50;99.90
31231;DHT22;17852;51.170;6.830;2024-01-30T05:19:57;8.50;99.90
31231;DHT22;17852;51.170;6.830;2024-01-30T05:22:23;8.40;99.90
31231;DHT22;17852;51.170;6.830;2024-01-30T05:24:48;8.40;99.90
31231;DHT22;17852;51.170;6.830;2024-01-30T05:27:14;8.40;99.90
31231;DHT22;17852;51.170;6.830;2024-01-30T05:29:40;8.40;99.90
31231;DHT22;17852;51.170;6.830;2024-01-30T05:32:08;8.30;99.90
31231;DHT22;17852;51.170;6.830;2024-01-30T05:34:35;8.30;99.90
31231;DHT22;17852;51.170;6.830;2024-01-30T05:37:01;8.30;99.90
31231;DHT22;17852;51.170;6.830;2024-01-30T05:39:27;8.20;99.90
31231;DHT22;17852;51.170;6.830;2024-01-30T05:41:53;8.20;99.90
31231;DHT22;17852;51.170;6.830;2024-01-30T05:44:18;8.20;99.90
31231;DHT22;17852;51.170;6.830;2024-01-30T05:46:44;8.20;99.90
31231;DHT22;17852;51.170;6.830;2024-01-30T05:49:10;8.20;99.90
31231;DHT22;17852;51.170;6.830;2024-01-30T05:51:35;8.10;99.90
31231;DHT22;17852;51.170;6.830;2024-01-30T05:54:01;8.10;99.90
31231;DHT22;17852;51.170;6.830;2024-01-30T05:56:29;8.00;99.90
31231;DHT22;17852;51.170;6.830;2024-01-30T05:58:54;8.00;99.90
31231;DHT22;17852;51.170;6.830;2024-01-30T06:01:20;8.00;99.90
31231;DHT22;17852;51.170;6.830;2024-01-30T06:03:46;8.00;99.90
31231;DHT22;17852;51.170;6.830;2024-01-30T06:06:11;8.00;99.90
31231;DHT22;17852;51.170;6.830;2024-01-30T06:08:37;8.00;99.90
31231;DHT22;17852;51.170;6.830;2024-01-30T06:11:03;8.00;99.90
31231;DHT22;17852;51.170;6.830;2024-01-30T06:13:29;8.00;99.90
31231;DHT22;17852;51.170;6.830;2024-01-30T06:15:57;8.00;99.90
31231;DHT22;17852;51.170;6.830;2024-01-30T06:18:23;8.00;99.90
31231;DHT22;17852;51.170;6.830;2024-01-30T06:20:48;8.20;99.90
31231;DHT22;17852;51.170;6.830;2024-01-30T06:23:14;8.10;99.90
31231;DHT22;17852;51.170;6.830;2024-01-30T06:25:40;8.10;99.90
31231;DHT22;17852;51.170;6.830;2024-01-30T06:28:06;8.20;99.90
31231;DHT22;17852;51.170;6.830;2024-01-30T06:30:32;8.20;99.90
31231;DHT22;17852;51.170;6.830;2024-01-30T06:32:57;8.20;99.90
31231;DHT22;17852;51.170;6.830;2024-01-30T06:35:23;8.20;99.90
31231;DHT22;17852;51.170;6.830;2024-01-30T06:37:49;8.20;99.90
31231;DHT22;17852;51.170;6.830;2024-01-30T06:40:15;8.20;99.90
31231;DHT22;17852;51.170;6.830;2024-01-30T06:42:40;8.30;99.90
31231;DHT22;17852;51.170;6.830;2024-01-30T06:45:06;8.30;99.90
31231;DHT22;17852;51.170;6.830;2024-01-30T06:47:33;8.30;99.90
31231;DHT22;17852;51.170;6.830;2024-01-30T06:49:59;8.40;99.90
31231;DHT22;17852;51.170;6.830;2024-01-30T06:52:25;8.30;99.90
31231;DHT22;17852;51.170;6.830;2024-01-30T06:54:50;8.30;99.90
31231;DHT22;17852;51.170;6.830;2024-01-30T06:57:16;8.40;99.90
31231;DHT22;17852;51.170;6.830;2024-01-30T06:59:42;8.40;99.90
31231;DHT22;17852;51.170;6.830;2024-01-30T07:02:10;8.40;99.90
31231;DHT22;17852;51.170;6.830;2024-01-30T07:04:36;8.40;99.90
31231;DHT22;17852;51.170;6.830;2024-01-30T07:07:03;8.40;99.90
31231;DHT22;17852;51.170;6.830;2024-01-30T07:09:30;8.50;99.90
31231;DHT22;17852;51.170;6.830;2024-01-30T07:11:56;8.50;99.90
31231;DHT22;17852;51.170;6.830;2024-01-30T07:14:24;8.50;99.90
31231;DHT22;17852;51.170;6.830;2024-01-30T07:16:49;8.50;99.90
31231;DHT22;17852;51.170;6.830;2024-01-30T07:19:16;8.50;99.90
31231;DHT22;17852;51.170;6.830;2024-01-30T07:21:42;8.60;99.90
31231;DHT22;17852;51.170;6.830;2024-01-30T07:24:08;8.60;99.90
31231;DHT22;17852;51.170;6.830;2024-01-30T07:27:04;8.60;99.90
31231;DHT22;17852;51.170;6.830;2024-01-30T07:29:47;8.60;99.90
31231;DHT22;17852;51.170;6.830;2024-01-30T07:32:13;8.70;99.90
31231;DHT22;17852;51.170;6.830;2024-01-30T07:34:38;8.70;99.90
31231;DHT22;17852;51.170;6.830;2024-01-30T07:37:06;8.80;99.90
31231;DHT22;17852;51.170;6.830;2024-01-30T07:39:34;8.80;99.90
31231;DHT22;17852;51.170;6.830;2024-01-30T07:42:00;8.80;99.90
31231;DHT22;17852;51.170;6.830;2024-01-30T07:44:26;8.80;99.90
31231;DHT22;17852;51.170;6.830;2024-01-30T07:46:51;8.90;99.90
31231;DHT22;17852;51.170;6.830;2024-01-30T07:49:17;8.90;99.90
31231;DHT22;17852;51.170;6.830;2024-01-30T07:51:43;8.90;99.90
31231;DHT22;17852;51.170;6.830;2024-01-30T07:54:10;8.90;99.90
31231;DHT22;17852;51.170;6.830;2024-01-30T07:56:36;8.90;99.90
31231;DHT22;17852;51.170;6.830;2024-01-30T07:59:01;8.90;99.90
31231;DHT22;17852;51.170;6.830;2024-01-30T08:01:27;8.90;99.90
31231;DHT22;17852;51.170;6.830;2024-01-30T08:03:53;9.00;99.90
31231;DHT22;17852;51.170;6.830;2024-01-30T08:06:19;8.90;99.90
31231;DHT22;17852;51.170;6.830;2024-01-30T08:08:45;9.00;99.90
31231;DHT22;17852;51.170;6.830;2024-01-30T08:11:11;9.00;99.90
31231;DHT22;17852;51.170;6.830;2024-01-30T08:13:37;9.00;99.90
31231;DHT22;17852;51.170;6.830;2024-01-30T08:16:03;9.10;99.90
31231;DHT22;17852;51.170;6.830;2024-01-30T08:18:29;9.20;99.90
31231;DHT22;17852;51.170;6.830;2024-01-30T08:20:55;9.20;99.90
31231;DHT22;17852;51.170;6.830;2024-01-30T08:23:21;9.30;99.90
31231;DHT22;17852;51.170;6.830;2024-01-30T08:25:46;9.30;99.90
31231;DHT22;17852;51.170;6.830;2024-01-30T08:28:12;9.40;99.90
31231;DHT22;17852;51.170;6.830;2024-01-30T08:30:38;9.50;99.90
31231;DHT22;17852;51.170;6.830;2024-01-30T08:33:05;9.50;99.90
31231;DHT22;17852;51.170;6.830;2024-01-30T08:35:30;9.60;99.90
31231;DHT22;17852;51.170;6.830;2024-01-30T08:37:59;9.50;99.90
31231;DHT22;17852;51.170;6.830;2024-01-30T08:40:25;9.60;99.90
31231;DHT22;17852;51.170;6.830;2024-01-30T08:42:50;9.60;99.90
31231;DHT22;17852;51.170;6.830;2024-01-30T08:45:16;9.60;99.90
31231;DHT22;17852;51.170;6.830;2024-01-30T08:47:42;9.70;99.90
31231;DHT22;17852;51.170;6.830;2024-01-30T08:50:08;9.90;99.90
31231;DHT22;17852;51.170;6.830;2024-01-30T08:52:34;10.00;99.90
31231;DHT22;17852;51.170;6.830;2024-01-30T08:55:00;9.90;99.90
31231;DHT22;17852;51.170;6.830;2024-01-30T08:57:26;10.00;99.90
31231;DHT22;17852;51.170;6.830;2024-01-30T08:59:58;10.00;99.90
31231;DHT22;17852;51.170;6.830;2024-01-30T09:02:23;10.00;99.90
31231;DHT22;17852;51.170;6.830;2024-01-30T09:04:49;10.00;99.90
31231;DHT22;17852;51.170;6.830;2024-01-30T09:07:15;10.00;99.90
31231;DHT22;17852;51.170;6.830;2024-01-30T09:09:41;10.10;99.90
31231;DHT22;17852;51.170;6.830;2024-01-30T09:12:07;10.20;99.90
31231;DHT22;17852;51.170;6.830;2024-01-30T09:14:35;10.10;99.90
31231;DHT22;17852;51.170;6.830;2024-01-30T09:17:01;10.20;99.90
31231;DHT22;17852;51.170;6.830;2024-01-30T09:19:28;10.20;99.90
31231;DHT22;17852;51.170;6.830;2024-01-30T09:21:54;10.30;99.90
31231;DHT22;17852;51.170;6.830;2024-01-30T09:24:20;10.50;99.90
31231;DHT22;17852;51.170;6.830;2024-01-30T09:26:45;10.50;99.90
31231;DHT22;17852;51.170;6.830;2024-01-30T09:29:11;10.50;99.90
31231;DHT22;17852;51.170;6.830;2024-01-30T09:31:37;10.60;99.90
31231;DHT22;17852;51.170;6.830;2024-01-30T09:34:03;10.70;99.90
31231;DHT22;17852;51.170;6.830;2024-01-30T09:36:28;10.70;99.90
31231;DHT22;17852;51.170;6.830;2024-01-30T09:38:54;10.70;99.90
31231;DHT22;17852;51.170;6.830;2024-01-30T09:41:21;10.70;99.90
31231;DHT22;17852;51.170;6.830;2024-01-30T09:43:50;10.80;99.90
31231;DHT22;17852;51.170;6.830;2024-01-30T09:46:17;10.90;99.90
31231;DHT22;17852;51.170;6.830;2024-01-30T09:48:48;10.90;99.90
31231;DHT22;17852;51.170;6.830;2024-01-30T09:51:17;11.00;99.90
31231;DHT22;17852;51.170;6.830;2024-01-30T09:53:44;11.10;99.90
31231;DHT22;17852;51.170;6.830;2024-01-30T09:56:10;11.00;99.90
31231;DHT22;17852;51.170;6.830;2024-01-30T09:58:37;10.90;99.90
31231;DHT22;17852;51.170;6.830;2024-01-30T10:01:05;11.00;99.90
31231;DHT22;17852;51.170;6.830;2024-01-30T10:03:31;11.20;99.90
31231;DHT22;17852;51.170;6.830;2024-01-30T10:05:56;11.40;99.90
31231;DHT22;17852;51.170;6.830;2024-01-30T10:08:22;11.40;99.90
31231;DHT22;17852;51.170;6.830;2024-01-30T10:10:49;11.30;99.90
31231;DHT22;17852;51.170;6.830;2024-01-30T10:13:18;11.40;99.90
31231;DHT22;17852;51.170;6.830;2024-01-30T10:15:44;11.60;99.90
31231;DHT22;17852;51.170;6.830;2024-01-30T10:18:13;11.60;99.90
31231;DHT22;17852;51.170;6.830;2024-01-30T10:20:39;11.70;99.90
31231;DHT22;17852;51.170;6.830;2024-01-30T10:23:04;11.80;99.90
31231;DHT22;17852;51.170;6.830;2024-01-30T10:25:31;11.70;99.90
31231;DHT22;17852;51.170;6.830;2024-01-30T10:27:59;11.70;99.90
31231;DHT22;17852;51.170;6.830;2024-01-30T10:30:25;11.80;99.90
31231;DHT22;17852;51.170;6.830;2024-01-30T10:32:51;11.80;99.90
31231;DHT22;17852;51.170;6.830;2024-01-30T10:35:17;11.80;99.90
31231;DHT22;17852;51.170;6.830;2024-01-30T10:37:49;11.80;99.90
31231;DHT22;17852;51.170;6.830;2024-01-30T10:40:15;11.90;99.90
31231;DHT22;17852;51.170;6.830;2024-01-30T10:42:45;11.60;99.90
31231;DHT22;17852;51.170;6.830;2024-01-30T10:45:12;11.70;99.90
31231;DHT22;17852;51.170;6.830;2024-01-30T10:47:59;11.90;99.90
31231;DHT22;17852;51.170;6.830;2024-01-30T10:50:25;12.10;99.90
31231;DHT22;17852;51.170;6.830;2024-01-30T10:52:53;12.30;99.90
31231;DHT22;17852;51.170;6.830;2024-01-30T10:55:22;12.10;99.90
31231;DHT22;17852;51.170;6.830;2024-01-30T10:57:49;12.30;99.90
31231;DHT22;17852;51.170;6.830;2024-01-30T11:00:16;12.50;99.90
31231;DHT22;17852;51.170;6.830;2024-01-30T11:02:47;12.70;99.90
31231;DHT22;17852;51.170;6.830;2024-01-30T11:05:25;12.70;99.90
31231;DHT22;17852;51.170;6.830;2024-01-30T11:07:57;12.90;99.90
31231;DHT22;17852;51.170;6.830;2024-01-30T11:10:25;12.70;99.90
31231;DHT22;17852;51.170;6.830;2024-01-30T11:12:50;12.80;99.90
31231;DHT22;17852;51.170;6.830;2024-01-30T11:15:17;12.60;99.90
31231;DHT22;17852;51.170;6.830;2024-01-30T11:22:47;12.60;99.90
31231;DHT22;17852;51.170;6.830;2024-01-30T11:25:14;12.80;99.90
31231;DHT22;17852;51.170;6.830;2024-01-30T11:27:42;13.00;99.90
31231;DHT22;17852;51.170;6.830;2024-01-30T11:30:08;13.00;99.90
31231;DHT22;17852;51.170;6.830;2024-01-30T11:32:34;12.90;99.90
31231;DHT22;17852;51.170;6.830;2024-01-30T11:35:00;13.00;99.90
31231;DHT22;17852;51.170;6.830;2024-01-30T11:37:31;13.20;99.90
31231;DHT22;17852;51.170;6.830;2024-01-30T11:39:58;13.20;99.90
31231;DHT22;17852;51.170;6.830;2024-01-30T11:42:24;13.00;99.90
31231;DHT22;17852;51.170;6.830;2024-01-30T11:44:56;12.90;99.90
31231;DHT22;17852;51.170;6.830;2024-01-30T11:47:23;13.00;99.90
31231;DHT22;17852;51.170;6.830;2024-01-30T11:49:49;13.20;99.90
31231;DHT22;17852;51.170;6.830;2024-01-30T11:52:14;13.20;99.90
31231;DHT22;17852;51.170;6.830;2024-01-30T11:54:40;13.00;99.90
31231;DHT22;17852;51.170;6.830;2024-01-30T11:57:06;12.80;99.90
31231;DHT22;17852;51.170;6.830;2024-01-30T11:59:32;12.60;99.90
31231;DHT22;17852;51.170;6.830;2024-01-30T12:01:58;12.70;99.90
31231;DHT22;17852;51.170;6.830;2024-01-30T12:04:23;12.50;99.90
31231;DHT22;17852;51.170;6.830;2024-01-30T12:06:53;12.60;99.90
31231;DHT22;17852;51.170;6.830;2024-01-30T12:09:19;12.40;99.90
31231;DHT22;17852;51.170;6.830;2024-01-30T12:11:48;12.40;99.90
31231;DHT22;17852;51.170;6.830;2024-01-30T12:14:17;12.40;99.90
31231;DHT22;17852;51.170;6.830;2024-01-30T12:16:48;12.40;99.90
31231;DHT22;17852;51.170;6.830;2024-01-30T12:19:25;12.50;99.90
31231;DHT22;17852;51.170;6.830;2024-01-30T12:21:55;12.50;99.90
31231;DHT22;17852;51.170;6.830;2024-01-30T12:24:22;12.60;99.90
31231;DHT22;17852;51.170;6.830;2024-01-30T12:26:48;12.70;99.90
31231;DHT22;17852;51.170;6.830;2024-01-30T12:29:14;12.70;99.90
31231;DHT22;17852;51.170;6.830;2024-01-30T12:31:42;12.60;99.90
31231;DHT22;17852;51.170;6.830;2024-01-30T12:34:09;12.50;99.90
31231;DHT22;17852;51.170;6.830;2024-01-30T12:36:35;12.50;99.90
31231;DHT22;17852;51.170;6.830;2024-01-30T12:39:01;12.50;99.90
31231;DHT22;17852;51.170;6.830;2024-01-30T12:41:27;12.50;99.90
31231;DHT22;17852;51.170;6.830;2024-01-30T12:43:54;12.60;99.90
31231;DHT22;17852;51.170;6.830;2024-01-30T12:46:20;12.60;99.90
31231;DHT22;17852;51.170;6.830;2024-01-30T12:48:46;12.70;99.90
31231;DHT22;17852;51.170;6.830;2024-01-30T12:51:11;12.70;99.90
31231;DHT22;17852;51.170;6.830;2024-01-30T12:53:37;12.70;99.90
31231;DHT22;17852;51.170;6.830;2024-01-30T12:56:03;12.70;99.90
31231;DHT22;17852;51.170;6.830;2024-01-30T12:58:29;12.70;99.90
31231;DHT22;17852;51.170;6.830;2024-01-30T13:00:58;12.70;99.90
31231;DHT22;17852;51.170;6.830;2024-01-30T13:03:24;12.70;99.90
31231;DHT22;17852;51.170;6.830;2024-01-30T13:05:50;12.70;99.90
31231;DHT22;17852;51.170;6.830;2024-01-30T13:08:16;12.70;99.90
31231;DHT22;17852;51.170;6.830;2024-01-30T13:10:42;12.80;99.90
31231;DHT22;17852;51.170;6.830;2024-01-30T13:13:08;12.70;99.90
31231;DHT22;17852;51.170;6.830;2024-01-30T13:15:35;12.60;99.90
31231;DHT22;17852;51.170;6.830;2024-01-30T13:18:00;12.60;99.90
31231;DHT22;17852;51.170;6.830;2024-01-30T13:20:26;12.60;99.90
31231;DHT22;17852;51.170;6.830;2024-01-30T13:22:52;12.60;99.90
31231;DHT22;17852;51.170;6.830;2024-01-30T13:25:18;12.60;99.90
31231;DHT22;17852;51.170;6.830;2024-01-30T13:27:44;12.60;99.90
31231;DHT22;17852;51.170;6.830;2024-01-30T13:30:10;12.50;99.90
31231;DHT22;17852;51.170;6.830;2024-01-30T13:32:37;12.50;99.90
31231;DHT22;17852;51.170;6.830;2024-01-30T13:35:03;12.50;99.90
31231;DHT22;17852;51.170;6.830;2024-01-30T13:37:28;12.50;99.90
31231;DHT22;17852;51.170;6.830;2024-01-30T13:39:55;12.40;99.90
31231;DHT22;17852;51.170;6.830;2024-01-30T13:42:22;12.50;99.90
31231;DHT22;17852;51.170;6.830;2024-01-30T13:44:48;12.50;99.90
31231;DHT22;17852;51.170;6.830;2024-01-30T13:47:25;12.50;99.90
31231;DHT22;17852;51.170;6.830;2024-01-30T13:49:51;12.50;99.90
31231;DHT22;17852;51.170;6.830;2024-01-30T13:52:18;12.50;99.90
31231;DHT22;17852;51.170;6.830;2024-01-30T13:54:44;12.60;99.90
31231;DHT22;17852;51.170;6.830;2024-01-30T13:57:10;12.60;99.90
31231;DHT22;17852;51.170;6.830;2024-01-30T13:59:38;12.60;99.90
31231;DHT22;17852;51.170;6.830;2024-01-30T14:02:03;12.70;99.90
31231;DHT22;17852;51.170;6.830;2024-01-30T14:04:29;12.80;99.90
31231;DHT22;17852;51.170;6.830;2024-01-30T14:06:55;12.80;99.90
31231;DHT22;17852;51.170;6.830;2024-01-30T14:09:21;12.70;99.90
31231;DHT22;17852;51.170;6.830;2024-01-30T14:11:47;12.70;99.90
31231;DHT22;17852;51.170;6.830;2024-01-30T14:14:12;12.70;99.90
31231;DHT22;17852;51.170;6.830;2024-01-30T14:16:38;12.60;99.90
31231;DHT22;17852;51.170;6.830;2024-01-30T14:19:04;12.60;99.90
31231;DHT22;17852;51.170;6.830;2024-01-30T14:21:30;12.60;99.90
31231;DHT22;17852;51.170;6.830;2024-01-30T14:23:55;12.60;99.90
31231;DHT22;17852;51.170;6.830;2024-01-30T14:26:21;12.50;99.90
31231;DHT22;17852;51.170;6.830;2024-01-30T14:28:47;12.50;99.90
31231;DHT22;17852;51.170;6.830;2024-01-30T14:31:13;12.60;99.90
31231;DHT22;17852;51.170;6.830;2024-01-30T14:33:39;12.80;99.90
31231;DHT22;17852;51.170;6.830;2024-01-30T14:36:05;12.80;99.90
31231;DHT22;17852;51.170;6.830;2024-01-30T14:38:31;12.70;99.90
31231;DHT22;17852;51.170;6.830;2024-01-30T14:40:56;12.70;99.90
31231;DHT22;17852;51.170;6.830;2024-01-30T14:43:22;12.70;99.90
31231;DHT22;17852;51.170;6.830;2024-01-30T14:45:49;12.70;99.90
31231;DHT22;17852;51.170;6.830;2024-01-30T14:48:18;12.60;99.90
31231;DHT22;17852;51.170;6.830;2024-01-30T14:50:46;12.60;99.90
31231;DHT22;17852;51.170;6.830;2024-01-30T14:53:12;12.50;99.90
31231;DHT22;17852;51.170;6.830;2024-01-30T14:55:37;12.50;99.90
31231;DHT22;17852;51.170;6.830;2024-01-30T14:58:03;12.50;99.90
31231;DHT22;17852;51.170;6.830;2024-01-30T15:00:29;12.50;99.90
31231;DHT22;17852;51.170;6.830;2024-01-30T15:02:55;12.50;99.90
31231;DHT22;17852;51.170;6.830;2024-01-30T15:05:21;12.50;99.90
31231;DHT22;17852;51.170;6.830;2024-01-30T15:07:47;12.50;99.90
31231;DHT22;17852;51.170;6.830;2024-01-30T15:10:13;12.40;99.90
31231;DHT22;17852;51.170;6.830;2024-01-30T15:12:38;12.40;99.90
31231;DHT22;17852;51.170;6.830;2024-01-30T15:15:07;12.40;99.90
31231;DHT22;17852;51.170;6.830;2024-01-30T15:17:34;12.40;99.90
31231;DHT22;17852;51.170;6.830;2024-01-30T15:20:00;12.30;99.90
31231;DHT22;17852;51.170;6.830;2024-01-30T15:22:26;12.30;99.90
31231;DHT22;17852;51.170;6.830;2024-01-30T15:24:52;12.20;99.90
31231;DHT22;17852;51.170;6.830;2024-01-30T15:27:18;12.20;99.90
31231;DHT22;17852;51.170;6.830;2024-01-30T15:29:45;12.20;99.90
31231;DHT22;17852;51.170;6.830;2024-01-30T15:32:11;12.10;99.90
31231;DHT22;17852;51.170;6.830;2024-01-30T15:34:37;12.10;99.90
31231;DHT22;17852;51.170;6.830;2024-01-30T15:37:05;12.00;99.90
31231;DHT22;17852;51.170;6.830;2024-01-30T15:39:31;11.90;99.90